createdAt,value
2023-01-27T00:00:04.250Z,3.30
2023-01-27T00:02:38.215Z,3.10
2023-01-27T00:05:01.915Z,2.90
2023-01-27T00:07:25.552Z,2.63
2023-01-27T00:09:50.486Z,3.33
2023-01-27T00:12:39.014Z,3.17
2023-01-27T00:15:02.379Z,4.07
2023-01-27T00:17:25.601Z,3.53
2023-01-27T00:19:48.894Z,3.83
2023-01-27T00:22:29.545Z,3.47
2023-01-27T00:24:54.186Z,3.40
2023-01-27T00:27:17.432Z,3.33
2023-01-27T00:29:41.465Z,3.10
2023-01-27T00:32:22.702Z,3.70
2023-01-27T00:34:46.113Z,3.33
2023-01-27T00:37:09.494Z,3.27
2023-01-27T00:39:32.868Z,3.23
2023-01-27T00:41:57.644Z,3.00
2023-01-27T00:44:20.939Z,3.23
2023-01-27T00:46:44.289Z,3.70
2023-01-27T00:49:07.708Z,3.20
2023-01-27T00:51:32.769Z,2.90
2023-01-27T00:53:56.212Z,3.63
2023-01-27T00:56:19.681Z,3.80
2023-01-27T00:58:44.473Z,3.97
2023-01-27T01:01:12.075Z,3.50
2023-01-27T01:03:37.789Z,3.37
2023-01-27T01:06:03.801Z,3.53
2023-01-27T01:08:27.564Z,4.30
2023-01-27T01:10:50.859Z,4.07
2023-01-27T01:13:14.736Z,3.73
2023-01-27T01:15:39.934Z,4.40
2023-01-27T01:18:03.359Z,3.83
2023-01-27T01:20:26.837Z,4.43
2023-01-27T01:22:50.139Z,4.90
2023-01-27T01:25:13.432Z,4.70
2023-01-27T01:27:36.681Z,4.90
2023-01-27T01:30:01.012Z,5.17
2023-01-27T01:32:25.726Z,5.87
2023-01-27T01:34:49.374Z,5.77
2023-01-27T01:37:13.460Z,6.80
2023-01-27T01:39:37.868Z,7.17
2023-01-27T01:42:02.640Z,6.83
2023-01-27T01:44:28.308Z,7.07
2023-01-27T01:46:51.936Z,7.53
2023-01-27T01:49:19.230Z,7.80
2023-01-27T01:51:46.660Z,8.70
2023-01-27T01:54:14.673Z,8.17
2023-01-27T01:56:41.127Z,7.80
2023-01-27T01:59:09.159Z,7.60
2023-01-27T02:01:32.696Z,7.63
2023-01-27T02:04:03.998Z,8.23
2023-01-27T02:06:29.660Z,7.67
2023-01-27T02:08:55.336Z,7.80
2023-01-27T02:11:19.001Z,10.07
2023-01-27T02:13:44.339Z,9.80
2023-01-27T02:16:09.540Z,10.37
2023-01-27T02:18:33.368Z,9.27
2023-01-27T02:20:57.144Z,10.00
2023-01-27T02:23:39.477Z,9.53
2023-01-27T02:26:09.337Z,10.40
2023-01-27T02:28:33.410Z,9.23
2023-01-27T02:30:57.449Z,10.90
2023-01-27T02:33:21.271Z,12.27
2023-01-27T02:35:55.488Z,11.83
2023-01-27T02:38:20.129Z,13.10
2023-01-27T02:40:44.354Z,13.60
2023-01-27T02:43:08.930Z,13.33
2023-01-27T02:45:32.907Z,13.57
2023-01-27T02:47:56.147Z,13.57
2023-01-27T02:50:19.848Z,13.83
2023-01-27T02:52:43.096Z,13.53
2023-01-27T02:55:08.181Z,13.33
2023-01-27T02:57:31.446Z,14.47
2023-01-27T03:00:16.948Z,16.10
2023-01-27T03:02:40.645Z,15.57
2023-01-27T03:05:05.060Z,17.20
2023-01-27T03:07:28.676Z,17.63
2023-01-27T03:09:52.196Z,18.03
2023-01-27T03:12:21.514Z,16.60
2023-01-27T03:15:02.706Z,18.17
2023-01-27T03:17:45.241Z,16.13
2023-01-27T03:20:10.285Z,15.13
2023-01-27T03:22:33.742Z,14.60
2023-01-27T03:24:57.130Z,14.70
2023-01-27T03:27:20.542Z,13.43
2023-01-27T03:30:02.961Z,13.10
2023-01-27T03:32:31.282Z,12.83
2023-01-27T03:35:15.543Z,12.33
2023-01-27T03:37:59.140Z,14.80
2023-01-27T03:40:40.969Z,13.70
2023-01-27T03:43:21.681Z,13.23
2023-01-27T03:46:07.744Z,13.30
2023-01-27T03:48:33.425Z,11.03
2023-01-27T03:50:59.105Z,10.27
2023-01-27T03:53:22.642Z,10.00
2023-01-27T03:55:46.752Z,8.70
2023-01-27T03:58:20.360Z,8.87
2023-01-27T04:00:43.708Z,8.43
2023-01-27T04:03:24.788Z,9.43
2023-01-27T04:06:07.054Z,8.90
2023-01-27T04:08:30.418Z,9.77
2023-01-27T04:11:07.551Z,9.13
2023-01-27T04:13:30.858Z,9.27
2023-01-27T04:15:55.950Z,8.97
2023-01-27T04:18:19.273Z,10.87
2023-01-27T04:20:42.469Z,9.03
2023-01-27T04:23:07.092Z,10.10
2023-01-27T04:25:30.347Z,11.20
2023-01-27T04:27:53.627Z,10.40
2023-01-27T04:30:18.272Z,11.03
2023-01-27T04:32:41.606Z,10.30
2023-01-27T04:35:05.453Z,10.43
2023-01-27T04:37:28.760Z,11.47
2023-01-27T04:39:53.897Z,11.97
2023-01-27T04:42:17.236Z,12.07
2023-01-27T04:44:40.470Z,11.80
2023-01-27T04:47:04.020Z,12.93
2023-01-27T04:49:27.699Z,15.33
2023-01-27T04:51:51.121Z,16.97
2023-01-27T04:54:14.358Z,16.17
2023-01-27T04:56:41.281Z,16.67
2023-01-27T04:59:06.969Z,16.57
2023-01-27T05:01:30.985Z,16.13
2023-01-27T05:03:54.538Z,15.53
2023-01-27T05:06:18.092Z,13.60
2023-01-27T05:08:41.593Z,13.53
2023-01-27T05:11:05.198Z,14.37
2023-01-27T05:13:30.101Z,13.47
2023-01-27T05:15:53.495Z,12.90
2023-01-27T05:18:16.924Z,13.73
2023-01-27T05:20:40.273Z,13.47
2023-01-27T05:23:26.271Z,13.87
2023-01-27T05:25:49.586Z,13.17
2023-01-27T05:28:13.060Z,12.73
2023-01-27T05:30:37.725Z,13.17
2023-01-27T05:33:01.154Z,12.83
2023-01-27T05:35:24.506Z,12.67
2023-01-27T05:37:47.739Z,13.57
2023-01-27T05:40:13.617Z,13.20
2023-01-27T05:42:36.875Z,12.50
2023-01-27T05:45:00.227Z,21.13
2023-01-27T05:47:24.921Z,13.57
2023-01-27T05:49:48.208Z,13.87
2023-01-27T05:52:11.521Z,13.87
2023-01-27T05:54:34.814Z,12.97
2023-01-27T05:56:58.071Z,13.47
2023-01-27T05:59:21.807Z,19.53
2023-01-27T06:01:45.076Z,21.90
2023-01-27T06:04:11.101Z,18.63
2023-01-27T06:06:35.260Z,41.13
2023-01-27T06:08:59.071Z,14.80
2023-01-27T06:11:24.339Z,16.77
2023-01-27T06:13:48.347Z,26.90
2023-01-27T06:16:14.149Z,15.73
2023-01-27T06:18:38.369Z,21.97
2023-01-27T06:21:04.720Z,18.47
2023-01-27T06:23:28.869Z,15.60
2023-01-27T06:25:52.652Z,14.10
2023-01-27T06:28:28.327Z,11.40
2023-01-27T06:30:53.155Z,13.63
2023-01-27T06:33:16.404Z,11.60
2023-01-27T06:35:41.817Z,10.17
2023-01-27T06:38:10.360Z,12.80
2023-01-27T06:40:36.032Z,9.80
2023-01-27T06:42:59.553Z,9.03
2023-01-27T06:45:23.530Z,8.80
2023-01-27T06:47:46.733Z,8.80
2023-01-27T06:50:12.449Z,9.40
2023-01-27T06:52:36.158Z,10.07
2023-01-27T06:55:00.913Z,10.23
2023-01-27T06:57:24.268Z,10.50
2023-01-27T06:59:47.596Z,10.87
2023-01-27T07:02:13.241Z,10.23
2023-01-27T07:04:36.490Z,10.47
2023-01-27T07:06:59.715Z,9.80
2023-01-27T07:09:23.104Z,10.63
2023-01-27T07:11:47.785Z,10.10
2023-01-27T07:14:10.966Z,9.57
2023-01-27T07:16:34.276Z,9.37
2023-01-27T07:18:57.575Z,9.80
2023-01-27T07:21:20.913Z,8.63
2023-01-27T07:23:44.610Z,9.07
2023-01-27T07:26:23.164Z,8.07
2023-01-27T07:28:49.177Z,7.93
2023-01-27T07:31:12.618Z,7.83
2023-01-27T07:33:37.164Z,7.77
2023-01-27T07:36:00.509Z,8.40
2023-01-27T07:38:23.902Z,41.40
2023-01-27T07:40:47.153Z,9.00
2023-01-27T07:43:12.222Z,8.17
2023-01-27T07:45:39.042Z,7.83
2023-01-27T07:48:02.810Z,8.83
2023-01-27T07:50:26.792Z,9.70
2023-01-27T07:52:50.103Z,9.20
2023-01-27T07:55:13.709Z,8.90
2023-01-27T07:57:37.164Z,9.07
2023-01-27T08:00:00.421Z,9.80
2023-01-27T08:02:25.883Z,9.37
2023-01-27T08:04:53.310Z,9.60
2023-01-27T08:07:17.637Z,9.70
2023-01-27T08:09:40.903Z,9.33
2023-01-27T08:12:04.337Z,9.60
2023-01-27T08:14:27.602Z,9.20
2023-01-27T08:16:51.009Z,9.00
2023-01-27T08:19:15.896Z,10.00
2023-01-27T08:21:39.146Z,9.53
2023-01-27T08:24:02.634Z,10.27
2023-01-27T08:26:25.960Z,12.90
2023-01-27T08:28:49.189Z,10.70
2023-01-27T08:31:16.208Z,9.20
2023-01-27T08:33:40.993Z,10.03
2023-01-27T08:36:08.392Z,10.57
2023-01-27T08:38:31.834Z,11.00
2023-01-27T08:40:55.135Z,11.53
2023-01-27T08:43:18.408Z,10.33
2023-01-27T08:45:41.732Z,10.50
2023-01-27T08:48:06.914Z,11.33
2023-01-27T08:50:30.645Z,9.90
2023-01-27T08:52:58.960Z,10.10
2023-01-27T08:55:22.229Z,10.27
2023-01-27T08:57:45.823Z,10.33
2023-01-27T09:00:11.830Z,10.67
2023-01-27T09:02:35.964Z,11.00
2023-01-27T09:04:59.247Z,9.80
2023-01-27T09:07:22.489Z,10.57
2023-01-27T09:09:51.314Z,10.30
2023-01-27T09:12:19.503Z,10.27
2023-01-27T09:14:43.116Z,11.63
2023-01-27T09:17:06.517Z,11.03
2023-01-27T09:19:29.832Z,10.40
2023-01-27T09:21:53.092Z,10.73
2023-01-27T09:24:17.873Z,10.73
2023-01-27T09:26:42.626Z,10.67
2023-01-27T09:29:06.256Z,9.23
2023-01-27T09:31:29.579Z,8.83
2023-01-27T09:33:52.963Z,8.77
2023-01-27T09:36:21.373Z,8.23
2023-01-27T09:38:49.572Z,8.47
2023-01-27T09:41:47.015Z,8.33
2023-01-27T09:44:37.065Z,8.07
2023-01-27T09:47:19.749Z,8.03
2023-01-27T09:50:09.160Z,8.10
2023-01-27T09:53:01.060Z,8.20
2023-01-27T09:55:35.029Z,7.77
2023-01-27T09:58:09.717Z,7.97
2023-01-27T10:00:47.282Z,8.53
2023-01-27T10:03:33.233Z,8.47
2023-01-27T10:06:20.044Z,8.43
2023-01-27T10:09:28.292Z,8.60
2023-01-27T10:11:59.993Z,9.83
2023-01-27T10:14:35.546Z,9.53
2023-01-27T10:17:31.480Z,10.10
2023-01-27T10:20:22.309Z,8.83
2023-01-27T10:22:58.919Z,10.73
2023-01-27T10:25:35.361Z,10.27
2023-01-27T10:28:00.479Z,9.50
2023-01-27T10:30:33.785Z,9.43
2023-01-27T10:33:11.706Z,9.97
2023-01-27T10:35:47.874Z,9.50
2023-01-27T10:38:18.503Z,9.87
2023-01-27T10:40:51.287Z,10.10
2023-01-27T10:43:24.180Z,10.40
2023-01-27T10:45:59.300Z,10.23
2023-01-27T10:48:37.243Z,9.97
2023-01-27T10:51:05.575Z,9.70
2023-01-27T10:53:36.116Z,11.03
2023-01-27T10:56:04.754Z,9.80
2023-01-27T10:58:52.959Z,10.37
2023-01-27T11:01:22.690Z,10.37
2023-01-27T11:03:52.185Z,10.50
2023-01-27T11:06:19.205Z,9.70
2023-01-27T11:08:49.076Z,10.10
2023-01-27T11:11:30.511Z,10.60
2023-01-27T11:14:04.508Z,9.77
2023-01-27T11:16:34.178Z,11.23
2023-01-27T11:19:04.065Z,10.37
2023-01-27T11:21:32.048Z,10.53
2023-01-27T11:23:59.319Z,10.03
2023-01-27T11:26:31.640Z,9.67
2023-01-27T11:29:11.301Z,10.70
2023-01-27T11:31:44.257Z,10.60
2023-01-27T11:34:14.468Z,11.13
2023-01-27T11:36:38.377Z,10.90
2023-01-27T11:39:04.629Z,11.18
2023-01-27T11:41:28.065Z,12.15
2023-01-27T11:43:52.156Z,12.38
2023-01-27T11:46:20.289Z,15.40
2023-01-27T11:48:49.408Z,14.77
2023-01-27T11:51:20.735Z,14.45
2023-01-27T11:53:46.782Z,12.68
2023-01-27T11:56:18.294Z,13.48
2023-01-27T11:58:50.965Z,12.90
2023-01-27T12:01:19.247Z,12.05
2023-01-27T12:03:55.808Z,11.60
2023-01-27T12:06:30.008Z,12.00
2023-01-27T12:08:53.252Z,11.23
2023-01-27T12:11:26.118Z,11.40
2023-01-27T12:13:51.953Z,11.63
2023-01-27T12:16:15.733Z,11.23
2023-01-27T12:18:54.138Z,10.30
2023-01-27T12:21:17.810Z,8.82
2023-01-27T12:23:49.101Z,8.55
2023-01-27T12:26:13.375Z,6.73
2023-01-27T12:28:42.894Z,6.53
2023-01-27T12:31:11.149Z,6.10
2023-01-27T12:33:35.588Z,5.88
2023-01-27T12:36:02.090Z,6.25
2023-01-27T12:38:28.681Z,5.85
2023-01-27T12:41:03.014Z,6.10
2023-01-27T12:43:26.514Z,5.43
2023-01-27T12:46:18.821Z,4.88
2023-01-27T12:48:50.009Z,4.40
2023-01-27T12:51:19.865Z,4.72
2023-01-27T12:53:44.277Z,4.10
2023-01-27T12:56:14.931Z,4.90
2023-01-27T12:58:41.430Z,4.70
2023-01-27T13:01:09.681Z,4.78
2023-01-27T13:03:39.478Z,4.70
2023-01-27T13:06:03.272Z,3.78
2023-01-27T13:08:29.969Z,4.90
2023-01-27T13:10:57.056Z,4.57
2023-01-27T13:13:25.160Z,4.75
2023-01-27T13:15:56.073Z,4.43
2023-01-27T13:18:22.023Z,4.45
2023-01-27T13:20:49.083Z,4.65
2023-01-27T13:23:19.338Z,4.50
2023-01-27T13:25:50.354Z,4.38
2023-01-27T13:28:19.972Z,3.92
2023-01-27T13:30:50.791Z,3.63
2023-01-27T13:33:30.738Z,4.05
2023-01-27T13:36:02.768Z,3.88
2023-01-27T13:38:35.878Z,3.75
2023-01-27T13:41:00.867Z,3.85
2023-01-27T13:43:32.629Z,4.18
2023-01-27T13:46:01.530Z,4.32
2023-01-27T13:48:29.866Z,4.07
2023-01-27T13:51:03.391Z,4.20
2023-01-27T13:53:26.969Z,4.63
2023-01-27T13:56:10.653Z,4.78
2023-01-27T13:58:46.852Z,4.38
2023-01-27T14:01:25.413Z,4.40
2023-01-27T14:04:25.261Z,4.47
2023-01-27T14:07:02.111Z,4.97
2023-01-27T14:09:42.761Z,3.85
2023-01-27T14:12:26.622Z,3.28
2023-01-27T14:15:04.876Z,3.00
2023-01-27T14:17:41.005Z,2.90
2023-01-27T14:20:27.053Z,3.15
2023-01-27T14:23:05.893Z,3.13
2023-01-27T14:25:40.030Z,2.40
2023-01-27T14:28:21.293Z,3.00
2023-01-27T14:30:52.001Z,3.85
2023-01-27T14:33:25.595Z,4.00
2023-01-27T14:35:54.162Z,4.80
2023-01-27T14:38:26.734Z,5.97
2023-01-27T14:41:10.304Z,7.55
2023-01-27T14:43:43.788Z,5.72
2023-01-27T14:46:20.866Z,4.85
2023-01-27T14:48:59.043Z,5.10
2023-01-27T14:51:36.794Z,4.80
2023-01-27T14:54:21.436Z,5.07
2023-01-27T14:56:56.067Z,4.93
2023-01-27T14:59:34.343Z,5.28
2023-01-27T15:02:08.601Z,5.30
2023-01-27T15:04:38.353Z,5.10
2023-01-27T15:07:10.171Z,5.57
2023-01-27T15:09:58.786Z,5.95
2023-01-27T15:12:49.383Z,5.85
2023-01-27T15:16:10.082Z,5.93
2023-01-27T15:19:12.204Z,4.60
2023-01-27T15:22:09.243Z,4.20
2023-01-27T15:24:58.927Z,4.45
2023-01-27T15:27:23.878Z,3.75
2023-01-27T15:29:47.684Z,3.60
2023-01-27T15:32:29.757Z,3.50
2023-01-27T15:34:55.170Z,3.67
2023-01-27T15:37:24.461Z,3.90
2023-01-27T15:40:04.385Z,4.07
2023-01-27T15:42:52.256Z,4.00
2023-01-27T15:45:29.447Z,4.35
2023-01-27T15:48:00.818Z,4.00
2023-01-27T15:50:31.268Z,3.72
2023-01-27T15:53:02.574Z,3.70
2023-01-27T15:55:29.292Z,4.05
2023-01-27T15:58:04.532Z,3.83
2023-01-27T16:00:31.623Z,4.13
2023-01-27T16:03:02.344Z,4.20
2023-01-27T16:05:28.433Z,4.20
2023-01-27T16:07:55.223Z,4.68
2023-01-27T16:10:22.649Z,13.88
2023-01-27T16:12:48.564Z,4.78
2023-01-27T16:15:24.256Z,3.90
2023-01-27T16:18:24.802Z,10.15
2023-01-27T16:20:55.571Z,6.18
2023-01-27T16:23:36.960Z,3.83
2023-01-27T16:26:17.099Z,3.60
2023-01-27T16:28:46.859Z,3.20
2023-01-27T16:31:17.838Z,3.88
2023-01-27T16:33:45.995Z,3.28
2023-01-27T16:36:19.955Z,3.22
2023-01-27T16:38:45.701Z,3.00
2023-01-27T16:41:19.656Z,3.13
2023-01-27T16:43:47.081Z,3.67
2023-01-27T16:46:32.448Z,3.08
2023-01-27T16:48:57.556Z,3.35
2023-01-27T16:51:25.961Z,3.80
2023-01-27T16:53:51.365Z,3.45
2023-01-27T16:56:24.339Z,4.18
2023-01-27T16:58:51.024Z,2.72
2023-01-27T17:01:24.662Z,4.68
2023-01-27T17:03:49.025Z,3.00
2023-01-27T17:06:17.300Z,3.35
2023-01-27T17:08:46.560Z,3.63
2023-01-27T17:11:25.107Z,3.30
2023-01-27T17:13:53.237Z,4.03
2023-01-27T17:16:25.629Z,2.70
2023-01-27T17:18:52.848Z,2.95
2023-01-27T17:21:33.351Z,2.80
2023-01-27T17:24:04.701Z,2.83
2023-01-27T17:26:28.601Z,2.72
2023-01-27T17:28:51.960Z,3.40
2023-01-27T17:31:21.352Z,3.38
2023-01-27T17:33:47.828Z,3.78
2023-01-27T17:36:13.300Z,4.90
2023-01-27T17:38:46.642Z,3.50
2023-01-27T17:41:27.220Z,3.70
2023-01-27T17:43:50.869Z,3.28
2023-01-27T17:46:19.413Z,3.78
2023-01-27T17:48:48.590Z,3.65
2023-01-27T17:51:13.975Z,3.67
2023-01-27T17:53:42.567Z,4.28
2023-01-27T17:56:14.926Z,4.03
2023-01-27T17:58:38.866Z,8.65
2023-01-27T18:01:02.379Z,4.30
2023-01-27T18:03:32.836Z,3.83
2023-01-27T18:05:56.642Z,4.07
2023-01-27T18:08:20.155Z,7.97
2023-01-27T18:10:45.268Z,4.25
2023-01-27T18:13:35.744Z,3.97
2023-01-27T18:16:02.259Z,3.72
2023-01-27T18:18:28.186Z,4.10
2023-01-27T18:21:04.519Z,4.10
2023-01-27T18:23:32.469Z,3.80
2023-01-27T18:26:07.645Z,3.90
2023-01-27T18:28:36.268Z,4.20
2023-01-27T18:30:59.702Z,4.30
2023-01-27T18:33:23.577Z,5.07
2023-01-27T18:35:58.883Z,6.75
2023-01-27T18:38:26.417Z,3.88
2023-01-27T18:40:50.249Z,3.67
2023-01-27T18:43:15.077Z,3.72
2023-01-27T18:45:38.364Z,4.15
2023-01-27T18:48:01.996Z,4.10
2023-01-27T18:50:26.677Z,4.40
2023-01-27T18:52:51.236Z,4.10
2023-01-27T18:55:21.725Z,4.00
2023-01-27T18:57:45.870Z,4.45
2023-01-27T19:00:14.185Z,4.35
2023-01-27T19:02:38.908Z,4.68
2023-01-27T19:05:02.291Z,4.55
2023-01-27T19:07:25.693Z,4.57
2023-01-27T19:09:49.635Z,4.28
2023-01-27T19:12:13.788Z,4.60
2023-01-27T19:14:37.145Z,4.68
2023-01-27T19:17:02.035Z,4.50
2023-01-27T19:19:25.393Z,4.50
2023-01-27T19:21:48.764Z,8.00
2023-01-27T19:24:12.496Z,4.60
2023-01-27T19:26:35.825Z,5.63
2023-01-27T19:28:59.595Z,4.97
2023-01-27T19:31:23.803Z,4.63
2023-01-27T19:33:48.704Z,5.07
2023-01-27T19:36:26.816Z,4.63
2023-01-27T19:38:50.676Z,4.88
2023-01-27T19:41:13.944Z,4.80
2023-01-27T19:43:37.293Z,5.28
2023-01-27T19:46:00.941Z,7.47
2023-01-27T19:48:25.789Z,5.90
2023-01-27T19:50:51.115Z,4.50
2023-01-27T19:53:16.561Z,4.17
2023-01-27T19:55:40.171Z,3.95
2023-01-27T19:58:03.744Z,4.30
2023-01-27T20:00:31.170Z,4.00
2023-01-27T20:02:55.657Z,3.95
2023-01-27T20:05:19.588Z,4.57
2023-01-27T20:07:44.584Z,3.53
2023-01-27T20:10:11.658Z,3.63
2023-01-27T20:12:34.931Z,3.40
2023-01-27T20:14:58.267Z,3.78
2023-01-27T20:17:21.601Z,3.15
2023-01-27T20:19:47.717Z,2.97
2023-01-27T20:22:14.125Z,3.22
2023-01-27T20:24:38.990Z,3.20
2023-01-27T20:27:02.479Z,3.30
2023-01-27T20:29:25.879Z,3.20
2023-01-27T20:31:50.216Z,2.65
2023-01-27T20:34:13.580Z,3.15
2023-01-27T20:36:37.108Z,3.03
2023-01-27T20:39:00.650Z,3.80
2023-01-27T20:41:25.835Z,3.40
2023-01-27T20:43:49.584Z,3.70
2023-01-27T20:46:15.665Z,3.65
2023-01-27T20:48:39.188Z,3.58
2023-01-27T20:51:05.179Z,3.78
2023-01-27T20:53:31.626Z,3.85
2023-01-27T20:55:57.431Z,3.83
2023-01-27T20:58:22.078Z,3.30
2023-01-27T21:00:45.683Z,4.00
2023-01-27T21:03:09.219Z,3.95
2023-01-27T21:05:34.314Z,4.37
2023-01-27T21:07:57.827Z,4.63
2023-01-27T21:10:21.140Z,4.73
2023-01-27T21:12:44.417Z,4.45
2023-01-27T21:15:11.426Z,5.27
2023-01-27T21:17:34.898Z,4.90
2023-01-27T21:19:58.187Z,5.43
2023-01-27T21:22:21.683Z,6.10
2023-01-27T21:24:44.961Z,5.80
2023-01-27T21:27:08.351Z,5.90
2023-01-27T21:29:32.214Z,6.03
2023-01-27T21:31:57.034Z,6.23
2023-01-27T21:34:21.840Z,6.38
2023-01-27T21:36:45.390Z,5.57
2023-01-27T21:39:09.164Z,6.28
2023-01-27T21:41:50.632Z,6.18
2023-01-27T21:44:38.269Z,5.88
2023-01-27T21:47:03.355Z,5.93
2023-01-27T21:49:26.791Z,6.20
2023-01-27T21:51:50.307Z,6.40
2023-01-27T21:54:13.718Z,6.60
2023-01-27T21:56:37.117Z,6.40
2023-01-27T21:59:01.051Z,6.93
2023-01-27T22:01:24.611Z,7.13
2023-01-27T22:03:49.302Z,7.37
2023-01-27T22:06:12.645Z,8.00
2023-01-27T22:08:36.484Z,7.60
2023-01-27T22:11:04.590Z,7.03
2023-01-27T22:13:27.982Z,8.13
2023-01-27T22:15:51.626Z,8.50
2023-01-27T22:18:15.002Z,7.83
2023-01-27T22:20:40.076Z,8.27
2023-01-27T22:23:03.341Z,7.93
2023-01-27T22:25:27.532Z,7.65
2023-01-27T22:27:54.614Z,8.40
2023-01-27T22:30:19.661Z,9.15
2023-01-27T22:32:43.392Z,8.77
2023-01-27T22:35:08.188Z,9.23
2023-01-27T22:37:34.771Z,9.80
2023-01-27T22:39:58.044Z,9.55
2023-01-27T22:42:21.370Z,9.20
2023-01-27T22:44:44.671Z,9.18
2023-01-27T22:47:08.067Z,9.88
2023-01-27T22:49:31.305Z,9.50
2023-01-27T22:51:54.607Z,9.40
2023-01-27T22:54:19.245Z,9.80
2023-01-27T22:56:43.173Z,9.80
2023-01-27T22:59:06.626Z,9.23
2023-01-27T23:01:30.850Z,9.90
2023-01-27T23:03:54.189Z,8.77
2023-01-27T23:06:17.655Z,8.57
2023-01-27T23:08:40.994Z,9.20
2023-01-27T23:11:08.624Z,9.07
2023-01-27T23:13:32.794Z,9.45
2023-01-27T23:15:56.050Z,9.63
2023-01-27T23:18:19.298Z,9.63
2023-01-27T23:20:43.777Z,8.98
2023-01-27T23:23:07.129Z,9.50
2023-01-27T23:25:30.589Z,10.18
2023-01-27T23:27:55.160Z,8.63
2023-01-27T23:30:19.840Z,8.52
2023-01-27T23:32:43.099Z,8.13
2023-01-27T23:35:07.647Z,8.50
2023-01-27T23:37:30.879Z,8.25
2023-01-27T23:39:54.314Z,8.27
2023-01-27T23:42:17.869Z,9.43
2023-01-27T23:44:42.483Z,8.57
2023-01-27T23:47:05.879Z,9.73
2023-01-27T23:49:29.258Z,9.82
2023-01-27T23:51:52.561Z,9.43
2023-01-27T23:54:15.869Z,8.43
2023-01-27T23:56:39.192Z,9.30
2023-01-27T23:59:02.781Z,9.90
